Time;durP1;ratioP1;P1;durP2;ratioP2;P2;SDS_P1;SDS_P2;PMS_P1;PMS_P2;Temp;Humidity;BMP_temperature;BMP_pressure;BME280_temperature;BME280_humidity;BME280_pressure;Samples;Min_cycle;Max_cycle;Signal;HPM_P1;HPM_P2
2022/10/10 03:00:36;;;;;;;12.45;6.68;;;8.60;99.90;;;;;;6258593;22;20014;-77
2022/10/10 03:03:02;;;;;;;9.70;6.10;;;8.60;99.90;;;;;;6309975;22;20007;-77
2022/10/10 03:05:28;;;;;;;9.93;5.68;;;8.50;99.90;;;;;;6311701;22;20331;-76
2022/10/10 03:07:57;;;;;;;11.00;6.43;;;8.60;99.90;;;;;;6339934;22;20018;-75
2022/10/10 03:10:22;;;;;;;13.32;6.40;;;8.60;99.90;;;;;;6340129;22;20396;-76
2022/10/10 03:12:48;;;;;;;11.23;6.28;;;8.50;99.90;;;;;;6312050;22;20011;-80
2022/10/10 03:15:14;;;;;;;13.48;6.47;;;8.50;99.90;;;;;;6312135;22;20093;-78
2022/10/10 03:17:39;;;;;;;9.85;6.07;;;8.50;99.90;;;;;;6286565;22;20046;-76
2022/10/10 03:20:06;;;;;;;10.35;6.45;;;8.50;99.90;;;;;;6339885;22;20018;-77
2022/10/10 03:22:31;;;;;;;11.38;7.03;;;8.50;99.90;;;;;;6339744;22;20038;-77
2022/10/10 03:24:57;;;;;;;14.63;7.00;;;8.50;99.90;;;;;;6312398;22;20022;-76
2022/10/10 03:27:23;;;;;;;13.50;6.60;;;8.50;99.90;;;;;;6340009;22;20017;-77
2022/10/10 03:29:48;;;;;;;12.93;6.63;;;8.50;99.90;;;;;;6312186;22;20011;-76
2022/10/10 03:32:14;;;;;;;14.05;7.15;;;8.50;99.90;;;;;;6311959;22;20073;-77
2022/10/10 03:34:40;;;;;;;10.38;6.10;;;8.50;99.90;;;;;;6339177;22;20086;-77
2022/10/10 03:37:05;;;;;;;10.77;7.25;;;8.50;99.90;;;;;;6312282;22;20011;-77
2022/10/10 03:39:31;;;;;;;18.27;6.43;;;8.50;99.90;;;;;;6340002;22;20011;-78
2022/10/10 03:41:57;;;;;;;11.05;6.68;;;8.40;99.90;;;;;;6311547;22;20340;-77
2022/10/10 03:44:22;;;;;;;12.85;7.13;;;8.40;99.90;;;;;;6311553;22;20018;-77
2022/10/10 03:46:48;;;;;;;11.13;6.13;;;8.40;99.90;;;;;;6286233;22;20160;-79
2022/10/10 03:49:14;;;;;;;10.55;6.22;;;8.40;99.90;;;;;;6312030;22;20144;-77
2022/10/10 03:51:39;;;;;;;16.20;6.35;;;8.40;99.90;;;;;;6311626;22;20336;-78
2022/10/10 03:54:05;;;;;;;9.88;6.10;;;8.40;99.90;;;;;;6311795;22;20049;-77
2022/10/10 03:56:31;;;;;;;13.65;6.25;;;8.40;99.90;;;;;;6311818;22;20011;-77
2022/10/10 03:58:59;;;;;;;10.93;6.20;;;8.50;99.90;;;;;;6339650;22;20010;-78
2022/10/10 04:01:29;;;;;;;14.07;6.43;;;8.40;99.90;;;;;;6311370;22;20015;-77
2022/10/10 04:03:55;;;;;;;10.85;6.18;;;8.40;99.90;;;;;;6339318;22;20440;-79
2022/10/10 04:06:20;;;;;;;12.15;5.78;;;8.50;99.90;;;;;;6311745;22;20374;-78
2022/10/10 04:08:46;;;;;;;13.85;6.60;;;8.50;99.90;;;;;;6339498;22;20086;-77
2022/10/10 04:11:12;;;;;;;10.48;5.75;;;8.40;99.90;;;;;;6311296;22;20089;-78
2022/10/10 04:13:38;;;;;;;17.52;6.28;;;8.40;99.90;;;;;;6285744;22;20064;-76
2022/10/10 04:16:05;;;;;;;11.10;6.72;;;8.40;99.90;;;;;;6312128;22;20356;-77
2022/10/10 04:18:30;;;;;;;14.18;6.72;;;8.40;99.90;;;;;;6339392;22;20044;-77
2022/10/10 04:20:56;;;;;;;12.98;6.70;;;8.40;99.90;;;;;;6311230;22;20092;-76
2022/10/10 04:23:22;;;;;;;12.40;6.13;;;8.40;99.90;;;;;;6311573;22;20436;-77
2022/10/10 04:25:51;;;;;;;12.50;6.22;;;8.40;99.90;;;;;;6311245;22;20163;-80
2022/10/10 04:28:17;;;;;;;14.65;6.85;;;8.40;99.90;;;;;;6311417;22;20014;-77
2022/10/10 04:30:43;;;;;;;12.00;6.90;;;8.40;99.90;;;;;;6311096;22;20375;-76
2022/10/10 04:33:10;;;;;;;11.30;6.43;;;8.30;99.90;;;;;;6338881;22;20042;-77
2022/10/10 04:35:35;;;;;;;10.93;6.40;;;8.40;99.90;;;;;;6311214;22;20010;-77
2022/10/10 04:38:01;;;;;;;10.85;6.28;;;8.40;99.90;;;;;;6311444;22;20041;-77
2022/10/10 04:40:27;;;;;;;12.80;7.20;;;8.40;99.90;;;;;;6339100;22;20033;-78
2022/10/10 04:42:54;;;;;;;12.30;6.93;;;8.40;99.90;;;;;;6311357;22;20063;-77
2022/10/10 04:45:19;;;;;;;12.18;6.55;;;8.40;99.90;;;;;;6338759;22;20029;-77
2022/10/10 04:47:45;;;;;;;13.80;7.47;;;8.40;99.90;;;;;;6311459;22;20499;-78
2022/10/10 04:50:11;;;;;;;14.55;6.28;;;8.30;99.90;;;;;;6338944;22;20523;-77
2022/10/10 04:52:36;;;;;;;12.82;7.03;;;8.30;99.90;;;;;;6311411;22;20089;-78
2022/10/10 04:55:02;;;;;;;12.60;6.78;;;8.30;99.90;;;;;;6311297;22;20407;-77
2022/10/10 04:57:28;;;;;;;10.13;6.45;;;8.30;99.90;;;;;;6311009;22;20458;-78
2022/10/10 04:59:54;;;;;;;11.10;6.28;;;8.30;99.90;;;;;;6311161;22;20025;-78
2022/10/10 05:02:19;;;;;;;15.70;6.97;;;8.30;99.90;;;;;;6311182;22;20017;-78
2022/10/10 05:04:45;;;;;;;16.50;7.47;;;8.30;99.90;;;;;;6311404;22;20013;-76
2022/10/10 05:07:10;;;;;;;13.20;6.57;;;8.30;99.90;;;;;;6311166;22;20408;-77
2022/10/10 05:09:36;;;;;;;12.95;6.82;;;8.30;99.90;;;;;;6338771;22;20006;-79
2022/10/10 05:12:02;;;;;;;14.80;6.68;;;8.30;99.90;;;;;;6310791;22;20063;-77
2022/10/10 05:14:27;;;;;;;11.65;6.78;;;8.30;99.90;;;;;;6338737;22;20328;-78
2022/10/10 05:16:53;;;;;;;13.85;7.30;;;8.30;99.90;;;;;;6285355;22;20082;-77
2022/10/10 05:19:18;;;;;;;10.00;6.57;;;8.30;99.90;;;;;;6338883;22;20010;-79
2022/10/10 05:21:44;;;;;;;12.10;6.57;;;8.30;99.90;;;;;;6311388;22;20026;-77
2022/10/10 05:24:10;;;;;;;11.93;6.25;;;8.30;99.90;;;;;;6311532;22;20006;-79
2022/10/10 05:26:35;;;;;;;14.45;7.35;;;8.30;99.90;;;;;;6311608;22;20010;-77
2022/10/10 05:29:01;;;;;;;12.25;6.53;;;8.30;99.90;;;;;;6285713;22;20440;-78
2022/10/10 05:31:27;;;;;;;16.10;7.22;;;8.30;99.90;;;;;;6286469;22;20017;-79
2022/10/10 05:33:53;;;;;;;12.65;7.43;;;8.30;99.90;;;;;;6311755;22;20457;-80
2022/10/10 05:36:19;;;;;;;12.88;7.18;;;8.30;99.90;;;;;;6339459;22;20018;-80
2022/10/10 05:38:45;;;;;;;15.82;6.78;;;8.30;99.90;;;;;;6285814;22;20067;-78
2022/10/10 05:41:11;;;;;;;11.77;6.45;;;8.30;99.90;;;;;;6285614;22;20014;-78
2022/10/10 05:43:37;;;;;;;14.30;7.30;;;8.30;99.90;;;;;;6311296;22;20042;-79
2022/10/10 05:46:04;;;;;;;10.52;6.47;;;8.30;99.90;;;;;;6311242;22;20057;-79
2022/10/10 05:48:30;;;;;;;11.20;6.85;;;8.30;99.90;;;;;;6311212;22;20038;-81
2022/10/10 05:50:57;;;;;;;8.20;4.57;;;8.20;99.90;;;;;;6310983;22;20093;-78
2022/10/10 05:53:24;;;;;;;9.85;4.03;;;8.30;99.90;;;;;;6285221;22;20018;-79
2022/10/10 05:55:50;;;;;;;10.95;4.40;;;8.30;99.90;;;;;;6311692;22;20014;-77
2022/10/10 05:58:16;;;;;;;10.02;4.35;;;8.30;99.90;;;;;;6287549;22;20018;-78
2022/10/10 06:00:44;;;;;;;13.60;4.90;;;8.30;99.90;;;;;;6288444;22;20094;-78
2022/10/10 06:03:12;;;;;;;8.32;3.97;;;8.20;99.90;;;;;;6287838;22;20069;-81
2022/10/10 06:05:39;;;;;;;8.10;4.20;;;8.20;99.90;;;;;;6313819;22;20011;-80
2022/10/10 06:08:06;;;;;;;10.15;4.22;;;8.20;99.90;;;;;;6288322;22;20336;-79
2022/10/10 06:10:37;;;;;;;11.00;4.40;;;8.20;99.90;;;;;;6340738;22;20026;-80
2022/10/10 06:13:03;;;;;;;9.93;4.28;;;8.20;99.90;;;;;;6313600;22;20370;-79
2022/10/10 06:15:29;;;;;;;9.20;4.10;;;8.20;99.90;;;;;;6341580;22;20030;-79
2022/10/10 06:17:54;;;;;;;11.05;4.45;;;8.20;99.90;;;;;;6341119;22;20014;-78
2022/10/10 06:20:20;;;;;;;9.05;4.50;;;8.20;99.90;;;;;;6340900;22;20011;-81
2022/10/10 06:22:46;;;;;;;7.10;4.07;;;8.20;99.90;;;;;;6314101;22;20366;-81
2022/10/10 06:25:11;;;;;;;10.02;4.43;;;8.20;99.90;;;;;;6341156;22;20006;-81
2022/10/10 06:27:37;;;;;;;10.35;4.85;;;8.20;99.90;;;;;;6341558;22;20014;-81
2022/10/10 06:30:04;;;;;;;7.80;4.30;;;8.20;99.90;;;;;;6341908;22;20029;-84
2022/10/10 06:32:29;;;;;;;11.10;4.32;;;8.20;99.90;;;;;;6341480;22;20336;-82
2022/10/10 06:34:55;;;;;;;12.23;5.28;;;8.20;99.90;;;;;;6313875;22;20014;-82
2022/10/10 06:37:21;;;;;;;7.85;4.43;;;8.30;99.90;;;;;;6313767;22;20011;-79
2022/10/10 06:39:46;;;;;;;12.88;4.93;;;8.30;99.90;;;;;;6341831;22;20026;-79
2022/10/10 06:42:12;;;;;;;9.23;4.45;;;8.30;99.90;;;;;;6341241;22;20462;-79
2022/10/10 06:44:38;;;;;;;10.50;4.90;;;8.30;99.90;;;;;;6341090;22;20007;-82
2022/10/10 06:47:04;;;;;;;8.68;4.22;;;8.40;99.90;;;;;;6342223;22;20365;-79
2022/10/10 06:49:29;;;;;;;9.45;4.90;;;8.40;99.90;;;;;;6313597;22;20006;-81
2022/10/10 06:51:55;;;;;;;11.07;4.90;;;8.40;99.90;;;;;;6313124;22;20067;-82
2022/10/10 06:54:21;;;;;;;8.50;4.05;;;8.40;99.90;;;;;;6341391;22;20423;-82
2022/10/10 06:56:46;;;;;;;9.90;4.38;;;8.40;99.90;;;;;;6340819;22;20010;-84
2022/10/10 06:59:12;;;;;;;12.20;5.30;;;8.50;99.90;;;;;;6287890;22;20018;-81
2022/10/10 07:01:38;;;;;;;11.13;5.03;;;8.50;99.90;;;;;;6340263;22;20045;-82
2022/10/10 07:04:04;;;;;;;11.13;5.07;;;8.50;99.90;;;;;;6287198;22;20007;-81
2022/10/10 07:06:30;;;;;;;12.50;4.65;;;8.50;99.90;;;;;;6312542;22;20010;-82
2022/10/10 07:08:57;;;;;;;10.48;4.80;;;8.50;99.90;;;;;;6312721;22;20082;-82
2022/10/10 07:11:24;;;;;;;10.90;4.50;;;8.50;99.90;;;;;;6340799;22;20014;-82
2022/10/10 07:13:51;;;;;;;10.90;4.75;;;8.50;99.90;;;;;;6347530;22;20091;-77
2022/10/10 07:16:17;;;;;;;10.60;4.95;;;8.60;99.90;;;;;;6296180;22;20042;-80
2022/10/10 07:18:43;;;;;;;11.48;4.68;;;8.60;99.90;;;;;;6313994;22;20015;-78
2022/10/10 07:21:08;;;;;;;10.95;4.95;;;8.70;99.90;;;;;;6313308;22;20310;-83
2022/10/10 07:23:35;;;;;;;10.82;4.88;;;8.70;99.90;;;;;;6312815;22;20073;-80
2022/10/10 07:26:04;;;;;;;9.48;4.30;;;8.80;99.90;;;;;;6312643;22;20006;-80
2022/10/10 07:28:30;;;;;;;11.73;5.00;;;8.80;99.90;;;;;;6340065;22;20520;-80
2022/10/10 07:31:02;;;;;;;12.35;4.80;;;8.90;99.90;;;;;;6312275;22;20344;-81
2022/10/10 07:33:43;;;;;;;10.57;4.40;;;8.90;99.90;;;;;;6312655;22;20022;-82
2022/10/10 07:36:19;;;;;;;9.82;4.25;;;9.00;99.90;;;;;;6312766;22;20042;-81
2022/10/10 07:38:51;;;;;;;11.13;3.83;;;9.10;99.90;;;;;;6235886;22;20015;-81
2022/10/10 07:41:18;;;;;;;12.00;4.47;;;9.20;99.90;;;;;;6340203;22;20098;-79
2022/10/10 07:43:45;;;;;;;11.40;4.90;;;9.20;99.90;;;;;;6312865;22;20013;-83
2022/10/10 07:46:16;;;;;;;10.65;5.40;;;9.30;99.90;;;;;;6340890;22;20014;-84
2022/10/10 07:48:42;;;;;;;11.90;5.38;;;9.40;99.90;;;;;;6312906;22;20006;-82
2022/10/10 07:51:09;;;;;;;8.18;4.25;;;9.50;99.90;;;;;;6313045;22;20385;-83
2022/10/10 07:53:34;;;;;;;9.52;4.80;;;9.60;99.90;;;;;;6312712;22;20018;-83
2022/10/10 07:56:16;;;;;;;9.90;4.30;;;9.70;99.90;;;;;;6340728;22;20084;-83
2022/10/10 07:58:42;;;;;;;13.20;4.38;;;9.80;99.90;;;;;;6312735;22;20025;-84
2022/10/10 08:01:10;;;;;;;11.00;5.70;;;9.90;99.90;;;;;;6312661;22;20042;-82
2022/10/10 08:03:36;;;;;;;11.00;4.85;;;10.00;99.90;;;;;;6312452;22;20378;-85
2022/10/10 08:06:07;;;;;;;12.52;4.55;;;10.10;99.90;;;;;;6341042;22;20017;-82
2022/10/10 08:08:33;;;;;;;9.38;4.63;;;10.20;99.90;;;;;;6340304;22;20432;-84
2022/10/10 08:10:59;;;;;;;11.02;4.43;;;10.30;99.90;;;;;;6312613;22;20151;-83
2022/10/10 08:13:25;;;;;;;11.05;5.13;;;10.50;99.90;;;;;;6312386;22;20460;-83
2022/10/10 08:15:52;;;;;;;11.43;5.03;;;10.60;99.90;;;;;;6287219;22;20011;-83
2022/10/10 08:18:18;;;;;;;8.85;4.70;;;10.70;99.90;;;;;;6340271;22;20011;-85
2022/10/10 08:20:44;;;;;;;11.55;4.63;;;10.80;99.90;;;;;;6339484;22;20394;-74
2022/10/10 08:23:10;;;;;;;16.30;4.65;;;10.80;99.90;;;;;;6339593;22;20505;-82
2022/10/10 08:25:36;;;;;;;10.40;4.65;;;10.90;99.90;;;;;;6312486;22;20050;-82
2022/10/10 08:28:02;;;;;;;9.35;4.47;;;11.00;99.90;;;;;;6340586;22;20148;-83
2022/10/10 08:30:27;;;;;;;11.27;5.25;;;11.00;99.90;;;;;;6312311;22;20011;-82
2022/10/10 08:32:53;;;;;;;14.93;5.13;;;11.00;99.90;;;;;;6311962;22;20506;-82
2022/10/10 08:35:19;;;;;;;10.50;4.53;;;11.10;99.90;;;;;;6312629;22;20363;-78
2022/10/10 08:37:44;;;;;;;11.10;4.80;;;11.10;99.90;;;;;;6312205;22;20081;-83
2022/10/10 08:40:18;;;;;;;14.50;4.93;;;11.20;99.90;;;;;;6286526;22;20057;-79
2022/10/10 08:42:48;;;;;;;11.38;5.15;;;11.20;99.90;;;;;;6286555;22;20443;-80
2022/10/10 08:45:18;;;;;;;11.73;4.53;;;11.30;99.90;;;;;;6339957;22;20186;-83
2022/10/10 08:48:02;;;;;;;8.57;4.25;;;11.30;99.90;;;;;;6311756;22;20022;-80
2022/10/10 08:50:45;;;;;;;9.80;4.60;;;11.40;99.90;;;;;;6285934;22;20041;-82
2022/10/10 08:53:20;;;;;;;10.93;5.05;;;11.60;99.90;;;;;;6285712;22;20041;-75
2022/10/10 08:55:47;;;;;;;;;;;11.70;99.90;;;;;;6286362;22;20010;-80
2022/10/10 08:58:42;;;;;;;13.88;4.82;;;11.80;99.90;;;;;;6311513;22;19918;-82
2022/10/10 09:01:24;;;;;;;8.48;5.00;;;11.90;99.90;;;;;;6284820;22;20011;-79
2022/10/10 09:03:49;;;;;;;12.48;5.00;;;12.00;99.90;;;;;;6339015;22;20007;-81
2022/10/10 09:06:18;;;;;;;10.10;4.50;;;12.20;99.90;;;;;;6339284;22;20017;-78
2022/10/10 09:09:02;;;;;;;11.93;4.78;;;12.50;99.90;;;;;;6311117;22;20014;-80
2022/10/10 09:11:34;;;;;;;8.95;4.72;;;12.70;99.90;;;;;;6311075;22;20042;-80
2022/10/10 09:14:22;;;;;;;11.68;4.95;;;12.70;99.90;;;;;;6311481;22;20094;-80
2022/10/10 09:17:08;;;;;;;13.18;5.00;;;12.70;99.90;;;;;;6311993;22;20022;-83
2022/10/10 09:19:46;;;;;;;9.85;5.25;;;12.70;99.90;;;;;;6311596;22;20444;-83
2022/10/10 09:22:21;;;;;;;8.95;4.65;;;12.70;99.90;;;;;;6339182;22;20517;-81
2022/10/10 09:24:55;;;;;;;16.05;5.60;;;12.60;99.90;;;;;;6311285;22;20099;-81
2022/10/10 09:27:34;;;;;;;12.52;5.55;;;12.60;99.90;;;;;;6285893;22;20340;-80
2022/10/10 09:30:04;;;;;;;10.52;5.22;;;12.60;99.90;;;;;;6285637;22;20483;-81
2022/10/10 09:32:39;;;;;;;10.07;5.60;;;12.60;99.90;;;;;;6312571;22;20089;-81
2022/10/10 09:35:24;;;;;;;9.45;4.95;;;12.60;99.90;;;;;;6313349;22;20011;-81
2022/10/10 09:38:00;;;;;;;10.93;5.70;;;12.60;99.90;;;;;;6313392;22;20018;-82
2022/10/10 09:40:33;;;;;;;;;;;12.60;99.90;;;;;;6313939;22;20034;-82
2022/10/10 09:43:09;;;;;;;11.10;4.88;;;12.70;99.90;;;;;;6313325;22;19910;-83
2022/10/10 09:45:40;;;;;;;10.50;5.00;;;12.70;99.90;;;;;;6313397;22;20122;-79
2022/10/10 09:48:09;;;;;;;13.27;5.72;;;12.70;99.90;;;;;;6313276;22;20015;-81
2022/10/10 09:50:36;;;;;;;14.23;5.88;;;12.80;99.90;;;;;;6313163;22;20011;-78
2022/10/10 09:53:02;;;;;;;13.88;5.43;;;12.80;99.90;;;;;;6313571;22;20025;-79
2022/10/10 09:55:36;;;;;;;9.48;5.28;;;12.80;99.90;;;;;;6313270;22;20089;-81
2022/10/10 09:58:25;;;;;;;9.73;5.68;;;12.80;99.90;;;;;;6340772;22;20011;-80
2022/10/10 10:00:52;;;;;;;14.80;5.80;;;13.00;99.90;;;;;;6287361;22;20348;-82
2022/10/10 10:03:21;;;;;;;10.57;5.47;;;13.20;99.90;;;;;;6287299;22;20064;-81
2022/10/10 10:06:00;;;;;;;11.05;5.30;;;13.40;99.90;;;;;;6313064;22;20335;-81
2022/10/10 10:08:34;;;;;;;12.50;5.70;;;13.50;99.90;;;;;;6313247;22;20006;-81
2022/10/10 10:11:02;;;;;;;9.73;5.00;;;13.50;99.90;;;;;;6340814;22;20046;-82
2022/10/10 10:13:36;;;;;;;15.80;5.72;;;13.60;99.90;;;;;;6287207;22;20090;-81
2022/10/10 10:16:03;;;;;;;10.18;5.43;;;13.60;99.90;;;;;;6313927;22;20011;-80
2022/10/10 10:18:36;;;;;;;14.85;6.50;;;13.70;99.90;;;;;;6313389;22;20170;-82
2022/10/10 10:21:01;;;;;;;12.23;5.32;;;13.70;99.90;;;;;;6313375;22;20064;-82
2022/10/10 10:23:39;;;;;;;13.77;5.45;;;13.70;99.90;;;;;;6287705;22;20370;-81
2022/10/10 10:26:19;;;;;;;13.30;5.25;;;13.70;99.90;;;;;;6313516;22;20049;-81
2022/10/10 10:28:46;;;;;;;10.55;5.40;;;13.60;99.90;;;;;;6313576;22;20015;-83
2022/10/10 10:31:31;;;;;;;15.73;5.72;;;13.60;99.90;;;;;;6312909;22;20015;-82
2022/10/10 10:34:23;;;;;;;16.87;5.33;;;13.60;99.90;;;;;;6312942;22;20043;-82
2022/10/10 10:37:12;;;;;;;10.85;5.35;;;13.60;99.90;;;;;;6286702;22;20138;-79
2022/10/10 10:39:58;;;;;;;16.38;5.30;;;13.70;99.90;;;;;;6313442;22;20050;-81
2022/10/10 10:42:45;;;;;;;9.07;5.32;;;13.70;99.90;;;;;;6339797;22;20015;-79
2022/10/10 10:45:37;;;;;;;15.10;5.70;;;13.70;99.90;;;;;;6313193;22;20006;-81
2022/10/10 10:48:23;;;;;;;11.70;5.60;;;13.70;99.90;;;;;;6266746;22;20014;-82
2022/10/10 10:50:57;;;;;;;;;;;13.60;99.90;;;;;;6251473;22;20067;-82
2022/10/10 10:53:35;;;;;;;10.30;5.22;;;13.60;99.90;;;;;;6312775;22;20286;-83
2022/10/10 10:56:04;;;;;;;14.25;5.70;;;13.60;99.90;;;;;;6312894;22;20388;-82
2022/10/10 10:58:39;;;;;;;9.68;5.63;;;13.60;99.90;;;;;;6312553;22;20018;-82
2022/10/10 11:01:24;;;;;;;9.18;5.03;;;13.60;99.90;;;;;;6286683;22;20018;-79
2022/10/10 11:04:02;;;;;;;14.70;5.47;;;13.60;99.90;;;;;;6312611;22;20017;-80
2022/10/10 11:06:49;;;;;;;13.13;5.18;;;13.50;99.90;;;;;;6339826;22;20007;-80
2022/10/10 11:09:49;;;;;;;14.25;5.78;;;13.50;99.90;;;;;;6286616;22;20015;-80
2022/10/10 11:12:32;;;;;;;9.30;5.13;;;13.40;99.90;;;;;;6208056;22;20007;-83
2022/10/10 11:15:08;;;;;;;12.25;5.60;;;13.40;99.90;;;;;;6312385;22;20466;-80
2022/10/10 11:17:44;;;;;;;10.73;5.93;;;13.40;99.90;;;;;;6312745;22;20475;-81
2022/10/10 11:20:21;;;;;;;;;;;13.30;99.90;;;;;;6313087;22;20381;-86
2022/10/10 11:22:52;;;;;;;15.00;5.90;;;13.30;99.90;;;;;;6312202;22;19917;-82
2022/10/10 11:25:25;;;;;;;16.85;5.15;;;13.30;99.90;;;;;;6312388;22;20015;-81
2022/10/10 11:28:15;;;;;;;10.77;5.55;;;13.30;99.90;;;;;;6312221;22;20029;-81
2022/10/10 11:30:55;;;;;;;14.13;6.15;;;13.30;99.90;;;;;;6312556;22;20007;-84
2022/10/10 11:33:29;;;;;;;14.07;6.93;;;13.30;99.90;;;;;;6312436;22;20432;-81
2022/10/10 11:36:18;;;;;;;12.73;5.57;;;13.40;99.90;;;;;;6312606;22;20056;-79
2022/10/10 11:39:04;;;;;;;17.20;5.70;;;13.40;99.90;;;;;;6286558;22;20007;-80
2022/10/10 11:41:38;;;;;;;14.40;6.32;;;13.40;99.90;;;;;;6312159;22;20019;-83
2022/10/10 11:44:11;;;;;;;14.55;6.55;;;13.40;99.90;;;;;;6312057;22;20019;-84
2022/10/10 11:47:08;;;;;;;12.73;6.22;;;13.40;99.90;;;;;;6286490;22;20082;-81
2022/10/10 11:49:48;;;;;;;16.25;7.38;;;13.50;99.90;;;;;;6305831;22;20042;-81
2022/10/10 11:52:30;;;;;;;14.52;6.13;;;13.50;99.90;;;;;;6311952;22;20049;-82
2022/10/10 11:55:43;;;;;;;17.85;7.55;;;13.50;99.90;;;;;;6285890;22;20056;-83
2022/10/10 11:58:08;;;;;;;11.60;5.38;;;13.60;99.90;;;;;;6244837;22;20041;-82
2022/10/10 12:00:50;;;;;;;12.57;6.07;;;13.60;99.90;;;;;;6286093;22;20010;-82
2022/10/10 12:03:15;;;;;;;17.95;6.65;;;13.70;99.90;;;;;;6286252;22;20089;-80
2022/10/10 12:05:49;;;;;;;14.23;6.20;;;13.70;99.90;;;;;;6312202;22;20445;-83
2022/10/10 12:08:24;;;;;;;13.95;6.45;;;13.70;99.90;;;;;;6311956;22;20022;-83
2022/10/10 12:11:19;;;;;;;18.83;6.75;;;13.70;99.90;;;;;;6312054;22;20090;-81
2022/10/10 12:13:53;;;;;;;12.02;6.65;;;13.70;99.90;;;;;;6285405;22;20374;-81
2022/10/10 12:16:22;;;;;;;16.80;6.38;;;13.70;99.90;;;;;;6312171;22;20068;-80
2022/10/10 12:18:52;;;;;;;17.58;6.43;;;13.60;99.90;;;;;;6318326;22;20034;-79
2022/10/10 12:21:22;;;;;;;13.07;7.00;;;13.60;99.90;;;;;;6315149;22;20316;-83
2022/10/10 12:23:59;;;;;;;19.00;6.43;;;13.60;99.90;;;;;;6312067;22;20014;-83
2022/10/10 12:26:44;;;;;;;17.88;6.63;;;13.60;99.90;;;;;;6339700;22;20340;-81
2022/10/10 12:29:10;;;;;;;15.40;7.57;;;13.60;99.90;;;;;;6340012;22;20011;-79
2022/10/10 12:31:39;;;;;;;13.18;6.10;;;13.60;99.90;;;;;;6311662;22;20011;-82
2022/10/10 12:34:35;;;;;;;19.50;6.20;;;13.60;99.90;;;;;;6311993;22;20050;-83
2022/10/10 12:37:26;;;;;;;12.43;6.65;;;13.60;99.90;;;;;;6285813;22;20060;-80
2022/10/10 12:40:19;;;;;;;14.55;6.13;;;13.60;99.90;;;;;;6311668;22;20516;-79
2022/10/10 12:42:45;;;;;;;14.52;6.22;;;13.60;99.90;;;;;;6307106;22;20066;-83
2022/10/10 12:45:29;;;;;;;19.17;6.57;;;13.60;99.90;;;;;;6311645;22;20061;-85
2022/10/10 12:47:57;;;;;;;12.93;5.70;;;13.60;99.90;;;;;;6339524;22;20071;-84
2022/10/10 12:50:33;;;;;;;14.05;6.22;;;13.60;99.90;;;;;;6338956;22;20503;-83
2022/10/10 12:53:01;;;;;;;15.80;7.07;;;13.60;99.90;;;;;;6311557;22;20492;-82
2022/10/10 12:55:27;;;;;;;14.20;7.05;;;13.60;99.90;;;;;;6311331;22;20444;-85
2022/10/10 12:58:06;;;;;;;14.00;6.20;;;13.60;99.90;;;;;;6285882;22;20021;-81
2022/10/10 13:00:38;;;;;;;14.25;6.65;;;13.60;99.90;;;;;;6311171;22;20037;-84
2022/10/10 13:03:15;;;;;;;18.85;7.53;;;13.50;99.90;;;;;;6311458;22;20018;-81
2022/10/10 13:05:42;;;;;;;14.73;7.38;;;13.50;99.90;;;;;;6311966;22;20011;-81
2022/10/10 13:08:13;;;;;;;14.18;6.70;;;13.40;99.90;;;;;;6285670;22;20049;-84
2022/10/10 13:10:39;;;;;;;19.48;7.82;;;13.50;99.90;;;;;;6311270;22;20007;-83
2022/10/10 13:13:19;;;;;;;15.75;7.15;;;13.50;99.90;;;;;;6339788;22;20313;-82
2022/10/10 13:15:56;;;;;;;17.33;7.75;;;13.40;99.90;;;;;;6339429;22;20034;-84
2022/10/10 13:18:43;;;;;;;20.55;7.55;;;13.40;99.90;;;;;;6311618;22;20034;-83
2022/10/10 13:21:13;;;;;;;19.17;7.80;;;13.40;99.90;;;;;;6339497;22;20079;-82
2022/10/10 13:23:48;;;;;;;17.65;7.93;;;13.40;99.90;;;;;;6311415;22;20455;-81
2022/10/10 13:26:36;;;;;;;17.90;7.57;;;13.30;99.90;;;;;;6311838;22;20089;-82
2022/10/10 13:29:26;;;;;;;17.45;8.00;;;13.30;99.90;;;;;;6311666;22;20015;-85
2022/10/10 13:31:56;;;;;;;14.90;7.40;;;13.30;99.90;;;;;;6312012;22;20014;-81
2022/10/10 13:34:25;;;;;;;12.45;5.43;;;13.30;99.90;;;;;;6312075;22;20014;-86
2022/10/10 13:36:56;;;;;;;7.65;2.63;;;13.20;99.90;;;;;;6311673;22;20015;-84
2022/10/10 13:39:22;;;;;;;4.78;1.10;;;13.10;99.90;;;;;;6311654;22;20444;-82
2022/10/10 13:41:49;;;;;;;2.50;1.08;;;12.90;99.90;;;;;;6285823;22;20015;-82
2022/10/10 13:44:24;;;;;;;3.20;0.68;;;12.80;99.90;;;;;;6285815;22;20015;-80
2022/10/10 13:46:50;;;;;;;3.28;0.45;;;12.70;99.90;;;;;;6311601;22;20018;-84
2022/10/10 13:49:27;;;;;;;8.27;0.88;;;12.60;99.90;;;;;;6311524;22;20003;-84
2022/10/10 13:52:20;;;;;;;5.63;1.00;;;12.50;99.90;;;;;;6311891;22;20022;-82
2022/10/10 13:54:47;;;;;;;4.05;0.77;;;12.50;99.90;;;;;;6311915;22;20010;-82
2022/10/10 13:57:21;;;;;;;1.75;0.47;;;12.40;99.90;;;;;;6311629;22;20015;-85
2022/10/10 14:00:00;;;;;;;3.97;0.75;;;12.40;99.90;;;;;;6311725;22;20060;-81
2022/10/10 14:02:35;;;;;;;7.35;1.20;;;12.40;99.90;;;;;;6338973;22;20011;-85
2022/10/10 14:05:15;;;;;;;5.85;0.85;;;12.40;99.90;;;;;;6311916;22;20050;-82
2022/10/10 14:07:47;;;;;;;2.70;0.65;;;12.40;99.90;;;;;;6311735;22;20393;-83
2022/10/10 14:10:17;;;;;;;4.40;0.80;;;12.40;99.90;;;;;;6285687;22;20011;-81
2022/10/10 14:12:52;;;;;;;7.25;1.00;;;12.30;99.90;;;;;;6339763;22;20014;-84
2022/10/10 14:15:41;;;;;;;11.48;1.33;;;12.30;99.90;;;;;;6339674;22;20050;-79
2022/10/10 14:18:19;;;;;;;6.82;1.23;;;12.30;99.90;;;;;;6312945;22;20021;-81
2022/10/10 14:20:45;;;;;;;6.53;1.17;;;12.30;99.90;;;;;;6313351;22;20019;-85
2022/10/10 14:23:12;;;;;;;8.20;1.10;;;12.20;99.90;;;;;;6341581;22;20060;-81
2022/10/10 14:25:39;;;;;;;8.10;0.82;;;12.20;99.90;;;;;;6313504;22;20010;-84
2022/10/10 14:28:05;;;;;;;7.03;0.93;;;12.30;99.90;;;;;;6341406;22;20061;-80
2022/10/10 14:30:31;;;;;;;5.30;1.08;;;12.30;99.90;;;;;;6287601;22;20011;-81
2022/10/10 14:32:57;;;;;;;5.60;1.05;;;12.30;99.90;;;;;;6287343;22;20441;-82
2022/10/10 14:35:23;;;;;;;5.50;1.17;;;12.30;99.90;;;;;;6313450;22;20019;-84
2022/10/10 14:37:49;;;;;;;11.25;1.60;;;12.30;99.90;;;;;;6340823;22;20018;-86
2022/10/10 14:40:21;;;;;;;9.73;1.95;;;12.40;99.90;;;;;;6340705;22;20018;-84
2022/10/10 14:42:47;;;;;;;17.20;2.70;;;12.40;99.90;;;;;;6287352;22;20006;-81
2022/10/10 14:45:15;;;;;;;10.10;1.40;;;12.40;99.90;;;;;;6287508;22;20014;-85
2022/10/10 14:47:41;;;;;;;12.90;2.00;;;12.50;99.90;;;;;;6313034;22;20045;-82
2022/10/10 14:50:31;;;;;;;12.20;1.48;;;12.50;99.90;;;;;;6313099;22;20041;-85
2022/10/10 14:52:56;;;;;;;12.82;1.23;;;12.60;99.90;;;;;;6341124;22;20055;-80
2022/10/10 14:55:22;;;;;;;9.80;1.40;;;12.60;99.90;;;;;;6340763;22;20077;-82
2022/10/10 14:57:48;;;;;;;14.15;1.23;;;12.60;99.90;;;;;;6313248;22;20022;-81
2022/10/10 15:00:17;;;;;;;12.27;1.40;;;12.70;99.90;;;;;;6313149;22;20015;-82
2022/10/10 15:02:43;;;;;;;11.75;1.48;;;12.70;99.90;;;;;;6312828;22;20437;-86
2022/10/10 15:05:08;;;;;;;11.35;1.58;;;12.80;99.90;;;;;;6313145;22;20014;-80
2022/10/10 15:07:38;;;;;;;16.38;1.42;;;12.80;99.90;;;;;;6313126;22;20015;-83
2022/10/10 15:10:05;;;;;;;9.27;1.35;;;12.70;99.90;;;;;;6340594;22;20013;-83
2022/10/10 15:12:31;;;;;;;8.23;1.60;;;12.70;99.90;;;;;;6340983;22;20056;-81
2022/10/10 15:14:57;;;;;;;7.57;1.20;;;12.70;99.90;;;;;;6312671;22;20048;-80
2022/10/10 15:17:24;;;;;;;7.72;1.13;;;12.80;99.90;;;;;;6312822;22;20015;-81
2022/10/10 15:19:51;;;;;;;10.48;1.73;;;12.90;99.90;;;;;;6340718;22;20007;-79
2022/10/10 15:22:16;;;;;;;10.57;1.25;;;13.00;99.90;;;;;;6340487;22;20017;-74
2022/10/10 15:24:44;;;;;;;7.13;1.23;;;13.10;99.90;;;;;;6312852;22;20032;-82
2022/10/10 15:27:10;;;;;;;13.77;1.23;;;13.10;99.90;;;;;;6312809;22;20015;-78
2022/10/10 15:29:38;;;;;;;13.07;1.40;;;13.20;99.90;;;;;;6312721;22;20017;-79
2022/10/10 15:32:04;;;;;;;9.07;1.45;;;13.30;99.90;;;;;;6286776;22;20038;-79
2022/10/10 15:34:30;;;;;;;10.63;1.05;;;13.30;99.90;;;;;;6311891;22;20015;-82
2022/10/10 15:36:55;;;;;;;8.57;1.13;;;13.30;99.90;;;;;;6312507;22;20017;-79
2022/10/10 15:39:21;;;;;;;9.77;1.35;;;13.30;99.90;;;;;;6286722;22;20033;-81
2022/10/10 15:41:47;;;;;;;13.45;1.27;;;13.30;99.90;;;;;;6312194;22;20014;-82
2022/10/10 15:44:15;;;;;;;8.90;1.25;;;13.30;99.90;;;;;;6312611;22;20010;-79
2022/10/10 15:46:42;;;;;;;7.70;1.17;;;13.30;99.90;;;;;;6313823;22;20014;-80
2022/10/10 15:49:08;;;;;;;5.03;1.15;;;13.30;99.90;;;;;;6312449;22;20505;-82
2022/10/10 15:51:34;;;;;;;11.50;1.13;;;13.20;99.90;;;;;;6312360;22;20018;-79
2022/10/10 15:54:00;;;;;;;9.02;0.90;;;13.20;99.90;;;;;;6312653;22;20336;-82
2022/10/10 15:56:26;;;;;;;8.85;1.50;;;13.10;99.90;;;;;;6312492;22;20014;-83
2022/10/10 15:59:00;;;;;;;3.10;1.00;;;13.10;99.90;;;;;;6312563;22;20015;-80
2022/10/10 16:01:27;;;;;;;10.05;1.30;;;13.10;99.90;;;;;;6311963;22;20022;-80
2022/10/10 16:03:54;;;;;;;8.98;1.48;;;13.00;99.90;;;;;;6312296;22;20013;-84